Time;durP1;ratioP1;P1;durP2;ratioP2;P2;SDS_P1;SDS_P2;PMS_P1;PMS_P2;Temp;Humidity;BMP_temperature;BMP_pressure;BME280_temperature;BME280_humidity;BME280_pressure;Samples;Min_cycle;Max_cycle;Signal;HPM_P1;HPM_P2
2022/06/01 00:00:11;;;;;;;;;18.40;16.40;;;;;21.15;68.96;99240.38;5068355;28;8865;-73
2022/06/01 00:03:03;;;;;;;;;24.40;21.80;;;;;21.25;68.54;99237.22;5026871;28;8888;-75
2022/06/01 00:05:32;;;;;;;;;22.60;21.00;;;;;21.29;68.12;99229.06;5032005;28;8854;-75
2022/06/01 00:08:00;;;;;;;;;22.20;22.20;;;;;21.35;67.70;99230.56;5068520;28;8943;-74
2022/06/01 00:10:29;;;;;;;;;20.20;19.00;;;;;21.39;67.61;99234.75;5067287;28;8862;-73
2022/06/01 00:12:57;;;;;;;;;27.00;25.20;;;;;21.42;67.52;99231.97;5067585;28;8903;-75
2022/06/01 00:15:27;;;;;;;;;31.40;25.20;;;;;21.43;67.32;99226.56;5068639;28;8830;-73
2022/06/01 00:17:57;;;;;;;;;26.40;24.40;;;;;21.47;67.22;99223.78;5068838;28;8870;-75
2022/06/01 00:20:27;;;;;;;;;32.00;30.20;;;;;21.48;67.33;99215.75;5050254;28;8862;-75
2022/06/01 00:22:56;;;;;;;;;41.75;36.00;;;;;21.50;67.94;99221.00;5067582;28;8854;-75
2022/06/01 00:25:25;;;;;;;;;32.50;31.50;;;;;21.50;67.90;99227.16;5068281;28;9616;-75
2022/06/01 00:27:54;;;;;;;;;24.40;23.20;;;;;21.34;68.21;99224.41;5068481;28;8879;-72
2022/06/01 00:30:24;;;;;;;;;25.20;20.80;;;;;21.33;67.51;99220.00;5066828;28;8866;-74
2022/06/01 00:32:52;;;;;;;;;21.40;18.20;;;;;21.29;67.38;99218.47;5068352;28;8866;-74
2022/06/01 00:35:24;;;;;;;;;18.40;16.60;;;;;21.18;67.61;99215.47;5067867;28;8858;-74
2022/06/01 00:37:54;;;;;;;;;19.00;19.00;;;;;21.19;67.58;99209.22;5066420;28;8846;-77
2022/06/01 00:40:26;;;;;;;;;17.00;16.40;;;;;21.19;67.64;99202.16;5048147;28;8868;-73
2022/06/01 00:42:59;;;;;;;;;20.00;19.40;;;;;21.21;67.48;99199.44;5046985;28;8859;-74
2022/06/01 00:45:29;;;;;;;;;22.40;21.00;;;;;21.23;67.84;99198.41;5046695;28;8895;-73
2022/06/01 00:47:58;;;;;;;;;20.00;18.40;;;;;21.26;67.63;99194.72;5050282;28;8921;-76
2022/06/01 00:50:36;;;;;;;;;26.80;22.60;;;;;21.27;67.50;99185.84;5067125;28;8834;-73
2022/06/01 00:53:08;;;;;;;;;18.60;17.60;;;;;21.28;67.90;99184.03;5072244;28;8857;-74
2022/06/01 00:55:42;;;;;;;;;21.40;19.60;;;;;21.22;68.54;99179.91;5070833;28;8872;-76
2022/06/01 00:58:18;;;;;;;;;41.00;36.00;;;;;21.22;68.69;99174.59;5072582;28;8842;-73
2022/06/01 01:00:49;;;;;;;;;19.00;19.00;;;;;21.19;68.05;99180.06;5070483;28;8915;-76
2022/06/01 01:03:20;;;;;;;;;21.20;19.40;;;;;21.18;67.77;99184.50;5087842;28;8858;-74
2022/06/01 01:05:56;;;;;;;;;16.20;16.20;;;;;21.14;67.44;99179.44;5072157;28;8858;-74
2022/06/01 01:08:27;;;;;;;;;15.60;13.80;;;;;21.09;66.76;99186.75;5071803;28;8855;-74
2022/06/01 01:10:55;;;;;;;;;12.00;9.80;;;;;21.03;66.24;99188.78;5069944;28;8920;-76
2022/06/01 01:13:24;;;;;;;;;12.80;12.60;;;;;21.03;65.76;99183.47;5071455;28;8974;-78
2022/06/01 01:15:55;;;;;;;;;9.00;9.00;;;;;20.90;66.06;99185.00;5071440;28;8893;-73
2022/06/01 01:18:28;;;;;;;;;9.40;9.40;;;;;21.01;65.80;99188.00;5088018;28;8866;-73
2022/06/01 01:21:12;;;;;;;;;13.40;11.20;;;;;21.01;65.89;99182.69;5071442;28;8846;-66
2022/06/01 01:23:50;;;;;;;;;9.60;9.60;;;;;20.95;66.41;99182.16;5047879;28;13243;-68
2022/06/01 01:26:22;;;;;;;;;9.40;9.40;;;;;21.03;66.00;99188.78;5092039;28;8864;-73
2022/06/01 01:28:52;;;;;;;;;9.80;9.80;;;;;21.11;65.67;99176.94;5090229;28;9013;-74
2022/06/01 01:31:23;;;;;;;;;10.00;9.80;;;;;21.14;65.61;99179.44;5091667;28;8928;-74
2022/06/01 01:33:53;;;;;;;;;11.80;10.60;;;;;21.18;65.19;99175.69;5091852;28;8832;-74
2022/06/01 01:36:28;;;;;;;;;11.00;9.00;;;;;21.23;65.19;99173.69;5091372;28;8895;-73
2022/06/01 01:39:05;;;;;;;;;13.00;12.40;;;;;21.26;65.35;99168.22;5091191;28;8816;-75
2022/06/01 01:41:40;;;;;;;;;20.80;18.80;;;;;21.30;66.13;99168.91;5091568;28;9036;-75
2022/06/01 01:44:12;;;;;;;;;15.60;15.20;;;;;21.27;65.21;99151.38;5090461;28;8855;-73
2022/06/01 01:46:47;;;;;;;;;10.00;8.80;;;;;21.30;64.43;99158.31;5039234;28;8839;-75
2022/06/01 01:49:16;;;;;;;;;8.80;8.80;;;;;21.32;63.85;99159.06;5090194;28;8843;-75
2022/06/01 01:51:45;;;;;;;;;10.20;9.60;;;;;21.33;63.93;99156.34;5091755;28;8839;-74
2022/06/01 01:54:28;;;;;;;;;9.80;9.00;;;;;21.35;62.97;99162.44;5091008;28;8839;-74
2022/06/01 01:57:12;;;;;;;;;10.40;9.40;;;;;21.34;62.92;99155.44;5091255;28;8871;-75
2022/06/01 01:59:50;;;;;;;;;9.00;8.20;;;;;21.31;62.37;99152.06;5089073;28;9633;-74
2022/06/01 02:02:27;;;;;;;;;9.40;9.20;;;;;21.31;62.16;99152.06;5072017;28;8878;-75
2022/06/01 02:07:55;;;;;;;;;11.20;9.80;;;;;21.31;62.42;99154.72;5091329;28;9616;-76
2022/06/01 02:13:12;;;;;;;;;12.60;12.60;;;;;21.23;64.37;99163.06;5089636;28;8854;-73
2022/06/01 02:15:45;;;;;;;;;13.00;12.40;;;;;21.18;64.24;99158.00;5090032;28;8847;-73
2022/06/01 02:18:18;;;;;;;;;19.60;17.80;;;;;21.25;65.60;99150.59;5089126;28;8839;-74
2022/06/01 02:20:52;;;;;;;;;30.80;30.20;;;;;21.27;66.26;99148.72;5091326;28;8992;-73
2022/06/01 02:23:21;;;;;;;;;26.60;24.00;;;;;21.25;67.00;99149.72;5103619;28;8979;-75
2022/06/01 02:25:50;;;;;;;;;27.20;24.60;;;;;21.23;66.84;99147.16;5055457;28;8886;-74
2022/06/01 02:28:20;;;;;;;;;24.60;23.00;;;;;21.25;67.17;99147.06;5091053;28;8848;-74
2022/06/01 02:30:50;;;;;;;;;22.20;19.60;;;;;21.16;67.26;99146.59;5090846;28;8877;-74
2022/06/01 02:33:23;;;;;;;;;18.80;18.80;;;;;21.08;68.14;99150.56;5088976;28;8855;-73
2022/06/01 02:35:54;;;;;;;;;16.40;15.40;;;;;21.00;66.96;99143.00;5065193;28;8858;-75
2022/06/01 02:38:26;;;;;;;;;18.80;18.80;;;;;21.02;68.11;99144.66;5069237;28;8857;-74
2022/06/01 02:40:55;;;;;;;;;19.80;18.80;;;;;20.99;68.49;99154.53;5070661;28;8870;-76
2022/06/01 02:43:26;;;;;;;;;15.80;15.80;;;;;20.86;69.46;99150.78;5070357;28;8842;-75
2022/06/01 02:45:56;;;;;;;;;20.80;20.80;;;;;20.38;70.81;99156.56;5070312;28;8846;-76
2022/06/01 02:48:24;;;;;;;;;17.00;17.00;;;;;20.02;72.38;99159.13;5068983;28;8850;-74
2022/06/01 02:50:53;;;;;;;;;13.60;13.60;;;;;19.83;72.61;99153.81;5070312;28;9035;-74
2022/06/01 02:53:21;;;;;;;;;21.40;19.80;;;;;20.05;72.18;99169.56;5087784;28;8844;-75
2022/06/01 02:55:50;;;;;;;;;28.20;23.40;;;;;20.17;72.34;99165.47;5054966;28;9607;-73
2022/06/01 02:58:18;;;;;;;;;23.60;20.80;;;;;20.29;71.96;99166.72;5088649;28;8835;-73
2022/06/01 03:00:48;;;;;;;;;23.20;22.60;;;;;20.36;71.40;99168.13;5088576;28;8856;-74
2022/06/01 03:03:18;;;;;;;;;14.20;14.20;;;;;20.39;70.06;99173.28;5089706;28;9652;-74
2022/06/01 03:05:46;;;;;;;;;22.40;21.00;;;;;20.43;70.23;99180.16;5089979;28;8862;-74
2022/06/01 03:08:15;;;;;;;;;20.40;20.00;;;;;20.43;69.53;99174.84;5089502;28;9033;-73
2022/06/01 03:10:44;;;;;;;;;19.60;18.80;;;;;20.41;68.97;99176.72;5087835;28;8851;-74
2022/06/01 03:13:21;;;;;;;;;13.80;13.80;;;;;20.29;67.86;99175.50;5089452;28;8862;-74
2022/06/01 03:15:53;;;;;;;;;12.40;12.20;;;;;20.15;67.67;99181.47;5088232;28;8867;-74
2022/06/01 03:18:22;;;;;;;;;16.60;14.80;;;;;20.19;68.07;99182.19;5089643;28;8839;-75
2022/06/01 03:20:51;;;;;;;;;19.20;19.00;;;;;20.35;68.56;99174.38;5089116;28;8843;-75
2022/06/01 03:23:20;;;;;;;;;20.60;20.60;;;;;20.45;67.95;99180.94;5088432;28;9624;-73
2022/06/01 03:25:48;;;;;;;;;25.80;23.20;;;;;20.48;67.31;99175.50;5089554;28;8894;-74
2022/06/01 03:28:17;;;;;;;;;18.60;17.80;;;;;20.55;66.33;99184.91;5089653;28;8819;-75
2022/06/01 03:30:46;;;;;;;;;20.80;19.60;;;;;20.63;66.81;99184.56;5089259;28;8847;-75
2022/06/01 03:33:17;;;;;;;;;26.60;26.00;;;;;20.80;68.55;99191.69;5089180;28;8871;-74
2022/06/01 03:35:46;;;;;;;;;29.20;27.00;;;;;20.93;68.18;99190.16;5089362;28;8865;-75
2022/06/01 03:38:14;;;;;;;;;27.80;26.60;;;;;21.02;67.55;99194.19;5089069;28;9652;-74
2022/06/01 03:40:42;;;;;;;;;21.60;21.00;;;;;20.98;67.12;99192.59;5087887;28;8859;-73
2022/06/01 03:43:12;;;;;;;;;24.80;24.80;;;;;21.06;67.04;99195.75;5089007;28;8855;-75
2022/06/01 03:45:55;;;;;;;;;21.60;21.00;;;;;21.13;67.38;99198.94;5089297;28;8886;-73
2022/06/01 03:48:30;;;;;;;;;25.20;25.20;;;;;20.83;68.32;99202.13;5088914;28;8882;-74
2022/06/01 03:51:00;;;;;;;;;27.80;27.60;;;;;20.61;69.35;99202.31;5088818;28;8839;-72
2022/06/01 03:53:29;;;;;;;;;14.40;12.60;;;;;20.41;70.35;99209.34;5087419;28;9701;-75
2022/06/01 03:55:58;;;;;;;;;11.50;9.50;;;;;20.54;69.23;99201.72;5087426;28;8944;-74
2022/06/01 03:58:26;;;;;;;;;19.80;19.40;;;;;20.30;70.21;99198.41;5086803;28;8878;-74
2022/06/01 04:00:55;;;;;;;;;20.20;19.20;;;;;20.00;70.83;99211.25;5088573;28;8840;-75
2022/06/01 04:03:26;;;;;;;;;22.00;20.80;;;;;19.93;71.81;99215.97;5085609;28;8966;-74
2022/06/01 04:05:54;;;;;;;;;23.40;23.00;;;;;20.26;70.88;99215.38;5085817;28;8975;-73
2022/06/01 04:08:23;;;;;;;;;27.20;26.20;;;;;20.42;70.10;99215.53;5086450;28;9496;-72
2022/06/01 04:10:52;;;;;;;;;23.60;23.60;;;;;20.50;69.14;99213.38;5053047;28;8845;-76
2022/06/01 04:13:25;;;;;;;;;21.40;19.00;;;;;20.51;68.71;99219.53;5082115;28;8876;-73
2022/06/01 04:15:54;;;;;;;;;20.80;20.00;;;;;20.72;68.35;99223.88;5065278;28;8852;-73
2022/06/01 04:18:28;;;;;;;;;18.20;18.20;;;;;20.78;67.26;99220.91;5047196;28;8869;-73
2022/06/01 04:20:57;;;;;;;;;20.20;20.20;;;;;20.94;66.75;99218.38;5061395;28;8985;-74
2022/06/01 04:23:26;;;;;;;;;56.00;45.00;;;;;21.07;66.26;99215.16;5034372;28;8971;-73
2022/06/01 04:25:54;;;;;;;;;65.00;54.00;;;;;21.18;65.49;99213.69;5083581;28;8869;-74
2022/06/01 04:28:23;;;;;;;;;27.20;26.20;;;;;21.25;65.24;99222.19;5078714;28;9251;-73
2022/06/01 04:30:51;;;;;;;;;17.20;17.20;;;;;21.18;64.99;99216.31;5081516;28;8994;-76
2022/06/01 04:33:20;;;;;;;;;18.80;18.20;;;;;21.28;64.75;99221.19;5083847;28;8884;-75
2022/06/01 04:35:50;;;;;;;;;16.40;15.40;;;;;21.33;64.38;99227.97;5089419;28;8850;-74
2022/06/01 04:38:18;;;;;;;;;18.80;16.20;;;;;21.14;64.92;99232.47;5086023;28;8859;-76
2022/06/01 04:40:50;;;;;;;;;22.80;21.60;;;;;20.51;67.86;99241.59;5086411;28;8863;-76
2022/06/01 04:43:20;;;;;;;;;19.20;18.40;;;;;20.01;70.45;99242.94;5086877;28;9581;-74
2022/06/01 04:45:55;;;;;;;;;21.00;21.00;;;;;19.90;71.67;99250.50;5086461;28;8855;-73
2022/06/01 04:48:25;;;;;;;;;20.40;19.60;;;;;20.13;71.15;99248.63;5086139;28;8852;-74
2022/06/01 04:50:57;;;;;;;;;18.00;18.00;;;;;20.47;69.52;99245.28;5087084;28;8855;-74
2022/06/01 04:53:26;;;;;;;;;16.60;16.60;;;;;20.73;68.08;99256.53;5085127;28;8863;-74
2022/06/01 04:55:54;;;;;;;;;20.80;20.80;;;;;20.88;67.53;99252.28;5086766;28;8848;-74
2022/06/01 04:58:23;;;;;;;;;21.00;21.00;;;;;21.16;66.92;99247.38;5084025;28;8832;-73
2022/06/01 05:00:51;;;;;;;;;20.80;19.20;;;;;21.40;65.85;99241.81;5085978;28;8848;-76
2022/06/01 05:03:20;;;;;;;;;15.20;14.60;;;;;21.66;64.87;99247.59;5084490;28;9741;-75
2022/06/01 05:05:48;;;;;;;;;24.00;23.20;;;;;21.87;64.50;99251.81;5085282;28;8847;-76
2022/06/01 05:08:18;;;;;;;;;18.80;17.40;;;;;22.00;63.90;99249.38;5101553;28;8859;-73
2022/06/01 05:10:47;;;;;;;;;13.80;13.80;;;;;22.16;63.22;99247.63;5085965;28;9667;-73
2022/06/01 05:13:18;;;;;;;;;11.40;11.40;;;;;22.39;62.38;99243.75;5067575;28;8866;-74
2022/06/01 05:15:52;;;;;;;;;16.60;14.00;;;;;22.58;61.87;99237.44;5116310;27;8850;-74
2022/06/01 05:18:21;;;;;;;;;18.20;17.80;;;;;22.77;61.54;99242.59;5052772;28;8959;-74
2022/06/01 05:20:50;;;;;;;;;12.80;12.60;;;;;22.97;60.40;99245.00;5086137;28;9073;-74
2022/06/01 05:23:20;;;;;;;;;15.80;14.80;;;;;23.06;60.16;99237.47;5084412;28;8885;-76
2022/06/01 05:25:50;;;;;;;;;15.00;13.00;;;;;23.23;59.48;99247.16;5084875;28;8844;-76
2022/06/01 05:28:21;;;;;;;;;16.80;16.40;;;;;23.40;58.96;99244.38;5084583;28;8812;-74
2022/06/01 05:30:50;;;;;;;;;14.00;12.40;;;;;23.54;58.05;99247.09;5084426;28;8867;-74
2022/06/01 05:33:25;;;;;;;;;13.00;13.00;;;;;23.70;56.95;99249.69;5086913;28;8859;-73
2022/06/01 05:35:53;;;;;;;;;17.20;13.00;;;;;23.87;57.08;99245.19;5089892;28;8851;-74
2022/06/01 05:38:23;;;;;;;;;13.00;12.00;;;;;24.01;56.77;99244.38;5085960;28;9299;-74
2022/06/01 05:40:52;;;;;;;;;14.00;14.00;;;;;24.15;56.47;99240.88;5089740;28;8924;-74
2022/06/01 05:43:21;;;;;;;;;13.60;13.60;;;;;24.25;55.90;99242.88;5089067;28;8867;-75
2022/06/01 05:45:50;;;;;;;;;15.40;14.60;;;;;24.38;56.22;99240.28;5089547;28;8840;-74
2022/06/01 05:48:20;;;;;;;;;18.00;17.00;;;;;24.46;56.02;99242.47;5089160;28;9002;-73
2022/06/01 05:50:49;;;;;;;;;16.00;14.00;;;;;24.34;55.82;99252.09;5086587;28;8851;-69
2022/06/01 05:53:17;;;;;;;;;13.40;13.20;;;;;24.01;56.64;99242.56;5089961;28;8831;-70
2022/06/01 05:55:47;;;;;;;;;15.80;15.00;;;;;24.27;56.13;99258.75;5072999;28;10062;-70
2022/06/01 05:58:18;;;;;;;;;15.60;15.60;;;;;24.52;55.44;99250.97;5090022;28;8867;-71
2022/06/01 06:00:49;;;;;;;;;15.60;14.60;;;;;23.85;57.27;99255.09;5089892;28;8878;-70
2022/06/01 06:03:19;;;;;;;;;13.80;13.80;;;;;23.71;57.90;99263.88;5089289;28;9636;-70
2022/06/01 06:06:15;;;;;;;;;18.40;18.40;;;;;23.48;58.87;99267.91;5089571;28;8855;-73
2022/06/01 06:08:48;;;;;;;;;8.80;8.80;;;;;23.53;58.50;99271.13;5088711;28;8844;-71
2022/06/01 06:11:27;;;;;;;;;19.20;15.40;;;;;23.27;59.26;99277.94;5086761;28;8892;-69
2022/06/01 06:13:57;;;;;;;;;14.60;13.00;;;;;23.69;58.78;99268.44;5085219;28;8836;-72
2022/06/01 06:16:28;;;;;;;;;9.40;9.20;;;;;23.07;59.40;99276.44;5089142;28;8847;-72
2022/06/01 06:18:57;;;;;;;;;13.00;13.00;;;;;23.14;59.58;99280.47;5086263;28;8852;-70
2022/06/01 06:21:27;;;;;;;;;12.00;11.00;;;;;23.58;58.55;99274.38;5089433;28;8875;-69
2022/06/01 06:23:59;;;;;;;;;12.60;12.00;;;;;23.61;58.60;99282.19;5090235;28;8879;-71
2022/06/01 06:26:29;;;;;;;;;14.00;12.60;;;;;23.55;59.35;99291.41;5090083;28;8954;-68
2022/06/01 06:28:58;;;;;;;;;11.80;11.20;;;;;23.79;58.99;99292.75;5088754;28;8832;-68
2022/06/01 06:31:26;;;;;;;;;12.20;11.20;;;;;23.12;59.00;99299.19;5086686;28;8867;-69
2022/06/01 06:33:56;;;;;;;;;11.20;10.60;;;;;22.56;58.59;99301.31;5089207;28;8902;-69
2022/06/01 06:36:25;;;;;;;;;16.80;15.60;;;;;22.38;57.57;99299.63;5088571;28;8819;-70
2022/06/01 06:38:53;;;;;;;;;10.00;8.40;;;;;22.49;57.89;99301.72;5090399;28;8838;-73
2022/06/01 06:41:23;;;;;;;;;9.20;9.20;;;;;22.83;57.23;99292.78;5090852;28;8851;-77
2022/06/01 06:43:55;;;;;;;;;19.00;15.80;;;;;23.11;57.35;99299.25;5090629;28;8867;-72
2022/06/01 06:46:24;;;;;;;;;13.60;11.80;;;;;23.53;56.83;99303.06;5088141;28;9697;-73
2022/06/01 06:48:53;;;;;;;;;13.40;13.40;;;;;23.77;56.93;99303.44;5072287;28;8859;-71
2022/06/01 06:51:24;;;;;;;;;12.60;11.20;;;;;24.16;56.02;99301.19;5106169;28;8844;-71
2022/06/01 06:53:53;;;;;;;;;11.60;11.40;;;;;24.41;55.64;99304.06;5071309;28;8898;-68
2022/06/01 06:56:22;;;;;;;;;15.60;14.20;;;;;24.50;55.73;99303.50;5089751;28;8915;-71
2022/06/01 06:58:51;;;;;;;;;15.00;15.00;;;;;24.85;55.20;99299.59;5088171;28;8962;-70
2022/06/01 07:01:21;;;;;;;;;22.40;20.20;;;;;24.90;55.96;99310.84;5087437;28;8952;-69
2022/06/01 07:03:49;;;;;;;;;16.00;14.80;;;;;24.44;55.70;99317.22;5088942;28;8972;-68
2022/06/01 07:06:23;;;;;;;;;18.20;17.20;;;;;24.55;55.36;99311.22;5088298;28;8840;-71
2022/06/01 07:08:54;;;;;;;;;20.00;17.80;;;;;24.50;55.06;99308.84;5105733;28;8969;-70
2022/06/01 07:11:28;;;;;;;;;15.60;14.20;;;;;23.59;58.38;99310.72;5089802;28;8936;-75
2022/06/01 07:13:59;;;;;;;;;18.20;16.80;;;;;23.64;57.67;99307.78;5037382;28;8838;-78
2022/06/01 07:16:31;;;;;;;;;19.40;16.80;;;;;23.59;56.57;99308.06;5082963;28;8871;-76
2022/06/01 07:19:02;;;;;;;;;17.40;17.00;;;;;23.81;55.79;99309.47;5107810;28;8859;-74
2022/06/01 07:21:31;;;;;;;;;9.20;7.80;;;;;23.42;57.59;99316.13;5107197;28;8860;-76
2022/06/01 07:24:01;;;;;;;;;21.80;21.60;;;;;23.20;59.69;99320.03;5107012;28;8921;-76
2022/06/01 07:26:33;;;;;;;;;21.80;19.00;;;;;23.26;59.81;99313.50;5106168;28;8855;-75
2022/06/01 07:29:02;;;;;;;;;18.20;17.00;;;;;23.70;58.49;99302.94;5106670;28;8886;-75
2022/06/01 07:31:32;;;;;;;;;18.20;15.80;;;;;24.04;57.64;99303.63;5055848;28;8925;-76
2022/06/01 07:34:02;;;;;;;;;17.40;16.20;;;;;24.31;56.51;99305.59;5086611;28;8857;-74
2022/06/01 07:36:31;;;;;;;;;19.60;18.00;;;;;24.22;56.78;99303.50;5106138;28;8836;-74
2022/06/01 07:44:39;;;;;;;;;20.80;20.40;;;;;23.65;58.59;99317.50;5026114;28;8879;-72
2022/06/01 07:47:10;;;;;;;;;17.80;16.80;;;;;23.48;57.91;99310.47;5009702;28;8832;-75
2022/06/01 07:49:59;;;;;;;;;16.20;16.20;;;;;23.80;57.22;99313.09;5013119;28;8860;-71
2022/06/01 07:52:47;;;;;;;;;20.40;20.40;;;;;24.33;55.51;99309.03;5025624;28;8848;-74
2022/06/01 07:55:16;;;;;;;;;12.60;11.20;;;;;23.91;53.52;99321.28;5025972;28;8872;-71
2022/06/01 07:57:45;;;;;;;;;16.60;13.80;;;;;23.88;51.93;99313.50;5024876;28;8946;-71
2022/06/01 08:00:14;;;;;;;;;12.00;10.80;;;;;23.93;53.12;99311.41;5005566;28;8854;-74
2022/06/01 08:02:45;;;;;;;;;14.20;11.40;;;;;24.42;53.53;99315.59;4973557;28;9166;-72
2022/06/01 08:05:16;;;;;;;;;15.20;13.40;;;;;24.86;53.27;99312.84;5002698;28;8842;-73
2022/06/01 08:07:45;;;;;;;;;10.60;10.60;;;;;24.61;53.47;99318.00;4990029;28;8851;-75
2022/06/01 08:10:16;;;;;;;;;15.40;15.40;;;;;24.61;54.03;99315.34;5005886;28;8945;-75
2022/06/01 08:15:32;;;;;;;;;14.80;13.00;;;;;24.89;52.24;99317.13;5002029;28;8870;-75
2022/06/01 08:18:02;;;;;;;;;11.60;10.40;;;;;24.80;51.99;99328.38;4973462;28;8852;-74
2022/06/01 08:20:31;;;;;;;;;10.00;10.00;;;;;24.90;50.31;99324.19;5005442;28;8862;-72
2022/06/01 08:23:01;;;;;;;;;7.00;7.00;;;;;24.24;49.72;99339.75;5065370;28;8840;-71
2022/06/01 08:25:30;;;;;;;;;8.00;7.80;;;;;24.57;50.04;99335.13;5065063;28;8978;-72
2022/06/01 08:27:58;;;;;;;;;12.20;12.20;;;;;24.83;50.35;99334.38;5065251;28;9629;-72
2022/06/01 08:30:29;;;;;;;;;6.60;6.60;;;;;24.56;46.92;99342.28;5065361;28;8867;-70
2022/06/01 08:32:58;;;;;;;;;8.80;8.80;;;;;24.39;49.86;99350.44;5061945;28;8920;-73
2022/06/01 08:35:30;;;;;;;;;8.40;8.20;;;;;24.39;50.11;99345.97;5064704;28;8901;-71
2022/06/01 08:38:00;;;;;;;;;10.20;10.20;;;;;24.56;50.42;99344.97;5077442;28;8836;-71
2022/06/01 08:40:32;;;;;;;;;11.00;11.00;;;;;24.84;50.60;99349.44;5086828;28;9557;-73
2022/06/01 08:43:09;;;;;;;;;10.80;10.80;;;;;24.61;50.83;99347.31;5087477;28;8860;-73
2022/06/01 08:45:37;;;;;;;;;11.80;10.60;;;;;25.05;50.46;99346.38;5086005;28;8876;-71
2022/06/01 08:48:07;;;;;;;;;10.20;10.20;;;;;25.38;48.57;99347.84;5087468;28;8952;-72
2022/06/01 08:50:39;;;;;;;;;11.00;11.00;;;;;25.73;48.53;99352.66;5087507;28;8973;-71
2022/06/01 08:53:09;;;;;;;;;10.20;10.20;;;;;25.25;49.66;99353.13;5035783;28;8906;-73
2022/06/01 08:55:48;;;;;;;;;11.20;11.20;;;;;24.54;51.94;99360.19;5068261;28;8910;-70
2022/06/01 08:58:19;;;;;;;;;9.80;9.80;;;;;24.71;51.77;99361.81;5087294;28;8836;-72
2022/06/01 09:01:00;;;;;;;;;10.40;10.40;;;;;24.43;52.21;99375.94;5087392;28;8975;-71
2022/06/01 09:03:35;;;;;;;;;11.40;11.40;;;;;24.43;52.81;99362.63;5087052;28;8994;-71
2022/06/01 09:06:13;;;;;;;;;8.20;7.80;;;;;24.53;52.50;99369.13;5087321;28;9106;-72
2022/06/01 09:08:49;;;;;;;;;12.40;10.00;;;;;24.63;50.60;99356.97;5089301;28;8863;-70
2022/06/01 09:11:23;;;;;;;;;11.40;11.00;;;;;24.77;50.49;99357.91;5073031;28;8943;-74
2022/06/01 09:13:58;;;;;;;;;9.40;9.40;;;;;24.68;50.42;99368.19;5091091;28;8886;-73
2022/06/01 09:16:32;;;;;;;;;9.80;9.40;;;;;24.52;51.04;99360.28;5091369;28;8936;-74
2022/06/01 09:19:02;;;;;;;;;19.00;18.60;;;;;24.66;50.69;99377.25;5089813;28;8879;-75
2022/06/01 09:24:22;;;;;;;;;8.20;8.20;;;;;24.51;47.56;99381.66;5090841;28;8935;-73
2022/06/01 09:26:57;;;;;;;;;5.00;5.00;;;;;24.46;47.78;99381.97;5089751;28;8843;-74
2022/06/01 09:29:29;;;;;;;;;7.00;7.00;;;;;24.68;48.68;99384.19;5091335;28;9632;-73
2022/06/01 09:32:01;;;;;;;;;7.60;7.60;;;;;24.92;49.26;99390.78;5090817;28;8978;-73
2022/06/01 09:34:38;;;;;;;;;9.40;9.20;;;;;24.84;48.82;99385.91;5090556;28;8863;-74
2022/06/01 09:37:19;;;;;;;;;7.40;7.00;;;;;24.66;50.09;99390.56;5090847;28;8879;-72
2022/06/01 09:39:52;;;;;;;;;6.40;6.20;;;;;24.77;49.53;99395.25;5089283;28;8913;-73
2022/06/01 09:42:26;;;;;;;;;8.00;7.40;;;;;24.99;48.67;99389.41;5090937;28;8876;-72
2022/06/01 09:44:57;;;;;;;;;13.40;12.40;;;;;25.25;49.58;99396.66;5106596;28;8880;-73
2022/06/01 09:47:36;;;;;;;;;10.80;10.00;;;;;25.25;48.60;99396.66;5090605;28;8942;-73
2022/06/01 09:50:20;;;;;;;;;7.80;7.80;;;;;25.10;48.09;99401.16;5091227;28;8868;-72
2022/06/01 09:52:50;;;;;;;;;8.00;6.00;;;;;24.72;49.25;99411.53;5089785;28;8966;-74
2022/06/01 09:55:20;;;;;;;;;5.60;5.60;;;;;24.99;49.15;99395.63;5090287;28;8855;-73
2022/06/01 09:58:05;;;;;;;;;8.40;8.40;;;;;24.74;47.79;99409.63;5089560;28;8891;-73
2022/06/01 10:06:30;;;;;;;;;7.80;7.80;;;;;24.54;49.88;99413.53;5090294;28;8864;-75
2022/06/01 10:09:04;;;;;;;;;8.60;8.00;;;;;24.86;49.45;99411.53;5089179;28;8840;-78
2022/06/01 10:11:36;;;;;;;;;8.80;8.80;;;;;25.21;48.30;99404.94;5090338;28;9040;-74
2022/06/01 10:14:19;;;;;;;;;11.80;11.80;;;;;25.45;48.82;99402.56;5090566;28;8851;-73
2022/06/01 10:17:04;;;;;;;;;12.60;11.60;;;;;25.56;49.06;99399.19;5090388;28;9023;-77
2022/06/01 10:19:37;;;;;;;;;13.20;11.80;;;;;25.81;47.42;99403.78;5089827;28;8884;-75
2022/06/01 10:22:11;;;;;;;;;13.20;12.80;;;;;25.38;47.62;99410.09;5085528;28;8835;-76
2022/06/01 10:24:46;;;;;;;;;8.60;8.60;;;;;25.05;49.24;99410.41;5069980;28;9026;-75
2022/06/01 10:27:17;;;;;;;;;11.20;9.20;;;;;25.00;50.29;99415.16;5089224;28;8944;-72
2022/06/01 10:29:50;;;;;;;;;11.60;11.20;;;;;25.05;49.67;99410.41;5071185;28;9624;-71
2022/06/01 10:32:30;;;;;;;;;10.40;9.80;;;;;25.35;49.57;99398.75;5090486;28;8824;-71
2022/06/01 10:35:11;;;;;;;;;13.00;12.00;;;;;25.85;48.60;99399.94;5090081;28;8931;-74
2022/06/01 10:37:53;;;;;;;;;14.00;13.40;;;;;25.74;46.23;99408.66;5066906;28;8887;-72
2022/06/01 10:40:37;;;;;;;;;14.00;11.00;;;;;25.35;47.27;99406.75;5067461;28;8882;-73
2022/06/01 10:43:18;;;;;;;;;15.80;13.00;;;;;25.25;48.45;99404.69;5067025;28;8851;-72
2022/06/01 10:45:52;;;;;;;;;14.40;13.20;;;;;25.62;48.53;99396.13;5066746;28;8893;-74
2022/06/01 10:48:29;;;;;;;;;13.80;13.20;;;;;25.63;46.51;99405.84;5067199;28;8851;-73
2022/06/01 10:51:09;;;;;;;;;11.00;10.40;;;;;26.03;46.71;99401.44;5067288;28;8872;-72
2022/06/01 10:53:52;;;;;;;;;12.40;11.20;;;;;26.17;44.99;99405.84;5019337;28;8851;-75
2022/06/01 10:56:23;;;;;;;;;13.40;11.80;;;;;26.26;46.31;99401.72;5066775;28;9741;-73
2022/06/01 10:58:54;;;;;;;;;15.80;13.80;;;;;26.23;46.87;99399.22;5066810;28;8847;-71
2022/06/01 11:01:36;;;;;;;;;14.60;14.60;;;;;26.51;46.56;99400.03;5067027;28;8863;-74
2022/06/01 11:04:35;;;;;;;;;15.00;14.20;;;;;26.99;46.87;99394.88;5066862;28;8871;-72
2022/06/01 11:07:25;;;;;;;;;11.40;11.40;;;;;27.49;44.81;99397.63;5067173;28;8871;-73
2022/06/01 11:10:04;;;;;;;;;12.20;12.20;;;;;27.26;44.45;99401.94;5069001;28;8854;-71
2022/06/01 11:12:47;;;;;;;;;15.40;14.40;;;;;27.22;45.49;99401.28;5074338;28;8843;-72
2022/06/01 11:15:25;;;;;;;;;13.00;12.60;;;;;27.50;45.10;99397.47;5089430;28;8940;-71
2022/06/01 11:18:01;;;;;;;;;14.40;14.40;;;;;27.63;44.68;99399.28;5089350;28;8859;-73
2022/06/01 11:20:47;;;;;;;;;16.60;13.60;;;;;27.63;45.05;99394.75;5070015;28;8908;-72
2022/06/01 11:23:28;;;;;;;;;13.60;13.60;;;;;27.25;46.36;99387.72;5089558;28;8956;-71
2022/06/01 11:26:11;;;;;;;;;11.60;11.60;;;;;27.34;45.56;99394.22;5089111;28;8960;-71
2022/06/01 11:29:01;;;;;;;;;13.40;12.20;;;;;27.87;44.93;99388.56;5089189;28;8862;-73
2022/06/01 11:31:30;;;;;;;;;14.80;13.60;;;;;28.41;44.14;99387.16;5087696;28;8835;-73
2022/06/01 11:34:05;;;;;;;;;9.60;9.60;;;;;28.92;43.95;99381.41;5090215;28;8851;-73
2022/06/01 11:36:41;;;;;;;;;12.80;12.80;;;;;28.85;43.35;99386.41;5070633;28;8847;-73
2022/06/01 11:39:27;;;;;;;;;12.80;12.80;;;;;28.23;44.32;99389.47;5089837;28;8844;-72
2022/06/01 11:42:04;;;;;;;;;9.20;8.00;;;;;27.99;44.62;99390.34;5053949;28;8851;-72
2022/06/01 11:44:37;;;;;;;;;15.60;14.20;;;;;28.40;43.25;99386.31;5089371;28;8973;-73
2022/06/01 11:47:11;;;;;;;;;13.60;13.20;;;;;28.91;42.70;99390.44;5089148;28;8843;-72
2022/06/01 11:49:41;;;;;;;;;11.80;10.80;;;;;29.25;42.78;99385.94;5089037;28;8950;-74
2022/06/01 11:52:32;;;;;;;;;13.20;13.20;;;;;29.85;41.19;99391.81;5088760;28;8859;-71
2022/06/01 11:55:24;;;;;;;;;15.00;13.80;;;;;30.50;40.30;99379.16;5045837;28;8881;-73
2022/06/01 11:57:55;;;;;;;;;10.60;10.40;;;;;31.01;39.76;99377.44;5045912;28;8934;-73
2022/06/01 12:00:35;;;;;;;;;12.40;11.40;;;;;31.53;38.50;99377.34;5045522;28;8908;-72
2022/06/01 12:03:41;;;;;;;;;13.00;11.80;;;;;31.99;37.16;99373.13;5045690;28;8860;-73
2022/06/01 12:06:13;;;;;;;;;11.00;9.80;;;;;32.30;36.87;99374.81;5045438;28;9079;-72
2022/06/01 12:08:49;;;;;;;;;12.80;12.80;;;;;32.70;36.26;99366.50;5045734;28;8934;-73
2022/06/01 12:11:43;;;;;;;;;13.00;11.00;;;;;33.00;34.79;99367.25;5057582;28;8890;-74
2022/06/01 12:14:27;;;;;;;;;16.00;14.80;;;;;31.92;36.16;99374.66;5065867;28;8859;-74